createdAt,value
2023-01-22T00:01:22.981Z,12.80
2023-01-22T00:03:50.002Z,11.82
2023-01-22T00:06:16.741Z,12.98
2023-01-22T00:08:43.686Z,12.32
2023-01-22T00:11:11.567Z,12.82
2023-01-22T00:13:38.625Z,13.45
2023-01-22T00:16:08.738Z,13.25
2023-01-22T00:21:02.361Z,12.00
2023-01-22T00:23:29.074Z,12.35
2023-01-22T00:26:02.977Z,12.52
2023-01-22T00:28:30.714Z,14.40
2023-01-22T00:31:01.590Z,12.63
2023-01-22T00:33:29.330Z,12.32
2023-01-22T00:35:56.395Z,12.65
2023-01-22T00:38:23.141Z,12.25
2023-01-22T00:40:49.851Z,12.68
2023-01-22T00:43:19.679Z,12.43
2023-01-22T00:45:46.417Z,13.38
2023-01-22T00:48:13.148Z,12.15
2023-01-22T00:50:39.876Z,12.80
2023-01-22T00:53:06.669Z,13.05
2023-01-22T00:55:33.675Z,12.70
2023-01-22T00:58:00.488Z,11.82
2023-01-22T01:00:27.409Z,12.43
2023-01-22T01:03:12.722Z,12.18
2023-01-22T01:05:39.458Z,12.95
2023-01-22T01:08:06.295Z,12.65
2023-01-22T01:10:33.084Z,12.45
2023-01-22T01:12:59.831Z,11.90
2023-01-22T01:15:26.756Z,13.30
2023-01-22T01:17:53.508Z,13.43
2023-01-22T01:20:20.485Z,12.85
2023-01-22T01:22:47.425Z,13.43
2023-01-22T01:25:14.263Z,12.90
2023-01-22T01:27:42.047Z,12.52
2023-01-22T01:30:09.460Z,12.55
2023-01-22T01:32:36.212Z,14.18
2023-01-22T01:35:03.086Z,14.13
2023-01-22T01:37:30.639Z,13.00
2023-01-22T01:39:57.958Z,13.40
2023-01-22T01:42:32.401Z,14.50
2023-01-22T01:45:21.873Z,13.23
2023-01-22T01:47:50.454Z,13.95
2023-01-22T01:50:19.638Z,14.13
2023-01-22T01:52:46.614Z,13.10
2023-01-22T01:55:14.823Z,13.77
2023-01-22T01:57:41.679Z,12.52
2023-01-22T02:00:12.582Z,12.25
2023-01-22T02:02:42.420Z,13.75
2023-01-22T02:05:10.285Z,13.57
2023-01-22T02:07:37.436Z,12.95
2023-01-22T02:10:06.250Z,13.68
2023-01-22T02:12:36.214Z,12.60
2023-01-22T02:15:04.305Z,13.18
2023-01-22T02:17:31.060Z,12.45
2023-01-22T02:19:57.771Z,12.23
2023-01-22T02:22:28.984Z,13.27
2023-01-22T02:24:56.394Z,13.20
2023-01-22T02:27:23.456Z,13.05
2023-01-22T02:29:51.113Z,12.63
2023-01-22T02:32:17.920Z,12.55
2023-01-22T02:34:44.922Z,12.73
2023-01-22T02:37:12.115Z,14.80
2023-01-22T02:39:42.071Z,13.18
2023-01-22T02:42:09.082Z,11.63
2023-01-22T02:44:36.908Z,13.70
2023-01-22T02:47:04.006Z,12.82
2023-01-22T02:49:31.903Z,12.43
2023-01-22T02:51:58.763Z,13.98
2023-01-22T02:54:25.583Z,11.73
2023-01-22T02:56:52.386Z,12.07
2023-01-22T02:59:19.132Z,11.82
2023-01-22T03:01:46.949Z,12.18
2023-01-22T03:04:15.386Z,11.20
2023-01-22T03:06:44.735Z,12.63
2023-01-22T03:09:13.824Z,11.75
2023-01-22T03:11:42.015Z,11.30
2023-01-22T03:14:31.902Z,10.68
2023-01-22T03:17:17.301Z,13.35
2023-01-22T03:20:03.105Z,11.00
2023-01-22T03:22:30.158Z,12.98
2023-01-22T03:24:58.706Z,11.50
2023-01-22T03:27:27.489Z,10.68
2023-01-22T03:29:54.947Z,11.88
2023-01-22T03:32:22.777Z,10.63
2023-01-22T03:34:50.809Z,10.75
2023-01-22T03:37:17.766Z,12.07
2023-01-22T03:39:46.940Z,9.45
2023-01-22T03:42:25.044Z,10.68
2023-01-22T03:44:51.790Z,9.93
2023-01-22T03:47:18.477Z,10.52
2023-01-22T03:49:45.191Z,9.68
2023-01-22T03:52:15.083Z,10.98
2023-01-22T03:54:41.795Z,10.57
2023-01-22T03:57:10.222Z,9.40
2023-01-22T03:59:41.922Z,9.55
2023-01-22T04:02:08.734Z,9.90
2023-01-22T04:04:47.684Z,10.18
2023-01-22T04:07:14.767Z,9.77
2023-01-22T04:09:42.022Z,10.13
2023-01-22T04:12:08.847Z,9.18
2023-01-22T04:14:35.658Z,9.38
2023-01-22T04:17:03.551Z,10.07
2023-01-22T04:19:40.617Z,11.00
2023-01-22T04:22:16.277Z,10.50
2023-01-22T04:24:44.589Z,9.10
2023-01-22T04:27:11.399Z,8.23
2023-01-22T04:29:38.290Z,8.13
2023-01-22T04:32:07.701Z,8.02
2023-01-22T04:34:57.236Z,9.23
2023-01-22T04:37:36.129Z,8.27
2023-01-22T04:40:05.562Z,7.50
2023-01-22T04:42:34.898Z,9.20
2023-01-22T04:45:01.683Z,7.78
2023-01-22T04:47:30.568Z,8.45
2023-01-22T04:49:57.416Z,8.00
2023-01-22T04:52:24.124Z,7.85
2023-01-22T04:54:51.983Z,7.75
2023-01-22T04:57:18.995Z,8.45
2023-01-22T04:59:47.093Z,8.65
2023-01-22T05:02:14.003Z,8.43
2023-01-22T05:04:41.652Z,7.95
2023-01-22T05:07:08.460Z,7.32
2023-01-22T05:09:35.241Z,8.05
2023-01-22T05:12:02.101Z,7.93
2023-01-22T05:14:33.810Z,8.15
2023-01-22T05:17:02.041Z,8.52
2023-01-22T05:19:28.822Z,7.32
2023-01-22T05:21:55.627Z,7.95
2023-01-22T05:24:22.638Z,7.47
2023-01-22T05:26:49.377Z,7.57
2023-01-22T05:29:26.068Z,7.40
2023-01-22T05:32:21.827Z,7.78
2023-01-22T05:34:53.885Z,7.50
2023-01-22T05:37:21.054Z,8.52
2023-01-22T05:39:48.279Z,8.18
2023-01-22T05:42:17.249Z,7.07
2023-01-22T05:47:14.296Z,7.45
2023-01-22T05:49:59.785Z,7.40
2023-01-22T05:52:26.624Z,6.75
2023-01-22T05:54:53.424Z,8.02
2023-01-22T05:57:20.188Z,6.68
2023-01-22T05:59:47.368Z,7.60
2023-01-22T06:02:14.604Z,6.63
2023-01-22T06:04:44.018Z,6.20
2023-01-22T06:07:22.166Z,7.32
2023-01-22T06:09:49.015Z,6.85
2023-01-22T06:12:16.925Z,7.13
2023-01-22T06:14:43.651Z,7.57
2023-01-22T06:17:11.880Z,11.98
2023-01-22T06:19:42.485Z,15.82
2023-01-22T06:22:09.590Z,17.70
2023-01-22T06:24:46.235Z,9.98
2023-01-22T06:27:14.620Z,15.55
2023-01-22T06:29:51.088Z,14.25
2023-01-22T06:32:18.092Z,7.85
2023-01-22T06:34:44.804Z,6.88
2023-01-22T06:37:11.532Z,8.35
2023-01-22T06:39:39.676Z,6.93
2023-01-22T06:42:17.325Z,7.47
2023-01-22T06:49:41.559Z,6.57
2023-01-22T06:52:08.529Z,6.55
2023-01-22T06:54:35.396Z,6.70
2023-01-22T06:57:02.208Z,6.32
2023-01-22T06:59:28.889Z,7.55
2023-01-22T07:01:55.687Z,9.35
2023-01-22T07:04:22.461Z,12.57
2023-01-22T07:06:49.424Z,12.63
2023-01-22T07:09:16.140Z,10.32
2023-01-22T07:11:42.845Z,8.77
2023-01-22T07:14:09.560Z,7.32
2023-01-22T07:16:36.293Z,7.72
2023-01-22T07:19:03.002Z,7.35
2023-01-22T07:21:29.747Z,7.22
2023-01-22T07:23:56.515Z,6.82
2023-01-22T07:26:23.229Z,6.45
2023-01-22T07:28:49.959Z,6.63
2023-01-22T07:31:16.695Z,6.57
2023-01-22T07:33:43.520Z,6.75
2023-01-22T07:36:10.271Z,6.75
2023-01-22T07:38:36.999Z,6.45
2023-01-22T07:41:11.466Z,7.43
2023-01-22T07:43:49.226Z,6.68
2023-01-22T07:46:16.324Z,6.72
2023-01-22T07:48:45.682Z,7.00
2023-01-22T07:51:12.782Z,7.07
2023-01-22T07:53:40.084Z,5.82
2023-01-22T07:56:07.186Z,6.80
2023-01-22T07:58:34.000Z,7.35
2023-01-22T08:01:07.067Z,6.85
2023-01-22T08:03:34.139Z,7.32
2023-01-22T08:06:01.182Z,7.03
2023-01-22T08:08:27.983Z,7.22
2023-01-22T08:10:58.465Z,7.90
2023-01-22T08:13:25.203Z,6.97
2023-01-22T08:15:51.963Z,6.40
2023-01-22T08:18:20.419Z,6.90
2023-01-22T08:20:48.147Z,6.88
2023-01-22T08:23:14.882Z,8.02
2023-01-22T08:25:41.577Z,7.28
2023-01-22T08:28:08.311Z,7.78
2023-01-22T08:30:45.356Z,7.40
2023-01-22T08:33:12.809Z,11.32
2023-01-22T08:35:39.826Z,9.02
2023-01-22T08:38:06.654Z,8.05
2023-01-22T08:40:33.476Z,6.70
2023-01-22T08:43:00.220Z,6.72
2023-01-22T08:45:27.022Z,7.20
2023-01-22T08:47:59.360Z,6.75
2023-01-22T08:50:27.130Z,7.05
2023-01-22T08:52:56.811Z,7.63
2023-01-22T08:55:24.003Z,7.38
2023-01-22T08:57:55.747Z,7.00
2023-01-22T09:00:23.073Z,6.93
2023-01-22T09:02:50.057Z,6.13
2023-01-22T09:05:17.069Z,7.07
2023-01-22T09:07:43.873Z,6.60
2023-01-22T09:10:12.865Z,7.25
2023-01-22T09:12:40.433Z,7.57
2023-01-22T09:15:08.132Z,6.60
2023-01-22T09:17:35.035Z,7.43
2023-01-22T09:20:01.912Z,7.28
2023-01-22T09:22:28.725Z,7.75
2023-01-22T09:24:55.497Z,7.22
2023-01-22T09:27:22.288Z,7.88
2023-01-22T09:29:49.058Z,7.22
2023-01-22T09:32:16.815Z,8.15
2023-01-22T09:34:43.624Z,8.82
2023-01-22T09:37:14.682Z,11.13
2023-01-22T09:39:41.492Z,12.40
2023-01-22T09:42:17.239Z,11.52
2023-01-22T09:44:46.932Z,10.18
2023-01-22T09:47:18.372Z,8.18
2023-01-22T09:49:57.353Z,7.28
2023-01-22T09:52:27.844Z,6.65
2023-01-22T09:54:54.733Z,7.47
2023-01-22T09:57:31.249Z,7.80
2023-01-22T09:59:59.023Z,7.80
2023-01-22T10:02:36.311Z,7.63
2023-01-22T10:05:33.041Z,6.78
2023-01-22T10:08:21.534Z,8.02
2023-01-22T10:10:48.879Z,7.80
2023-01-22T10:13:29.313Z,7.72
2023-01-22T10:15:56.593Z,7.45
2023-01-22T10:18:46.444Z,13.25
2023-01-22T10:21:28.220Z,8.93
2023-01-22T10:23:58.613Z,13.10
2023-01-22T10:26:40.430Z,9.80
2023-01-22T10:29:10.224Z,9.45
2023-01-22T10:31:42.441Z,6.85
2023-01-22T10:34:22.771Z,7.40
2023-01-22T10:39:20.878Z,7.05
2023-01-22T10:41:48.840Z,7.00
2023-01-22T10:44:23.665Z,6.55
2023-01-22T10:46:51.154Z,6.60
2023-01-22T10:49:25.125Z,7.40
2023-01-22T10:51:53.046Z,6.72
2023-01-22T10:54:31.025Z,6.85
2023-01-22T10:57:21.018Z,6.03
2023-01-22T11:00:15.997Z,8.35
2023-01-22T11:02:45.951Z,9.80
2023-01-22T11:05:28.303Z,10.82
2023-01-22T11:07:59.820Z,8.32
2023-01-22T11:10:50.818Z,6.53
2023-01-22T11:13:43.322Z,7.15
2023-01-22T11:16:24.437Z,6.65
2023-01-22T11:19:12.773Z,6.35
2023-01-22T11:21:50.362Z,6.55
2023-01-22T11:24:39.198Z,6.68
2023-01-22T11:27:38.927Z,7.07
2023-01-22T11:30:37.775Z,6.28
2023-01-22T11:33:22.946Z,8.98
2023-01-22T11:35:55.761Z,7.63
2023-01-22T11:38:29.485Z,6.53
2023-01-22T11:41:13.948Z,6.93
2023-01-22T11:43:59.733Z,8.00
2023-01-22T11:46:38.655Z,7.50
2023-01-22T11:49:35.901Z,7.55
2023-01-22T11:52:37.313Z,8.07
2023-01-22T11:55:19.013Z,7.50
2023-01-22T11:58:10.762Z,7.03
2023-01-22T12:00:43.480Z,7.05
2023-01-22T12:03:35.170Z,7.25
2023-01-22T12:06:15.487Z,7.90
2023-01-22T12:08:59.686Z,7.18
2023-01-22T12:11:45.803Z,7.47
2023-01-22T12:14:39.027Z,7.93
2023-01-22T12:17:14.844Z,7.82
2023-01-22T12:20:03.507Z,7.82
2023-01-22T12:23:21.036Z,6.70
2023-01-22T12:26:18.122Z,9.38
2023-01-22T12:28:52.858Z,9.65
2023-01-22T12:31:33.737Z,8.23
2023-01-22T12:34:03.371Z,8.32
2023-01-22T12:36:30.413Z,7.40
2023-01-22T12:38:57.213Z,6.85
2023-01-22T12:41:32.813Z,6.57
2023-01-22T12:44:17.677Z,6.72
2023-01-22T12:46:48.499Z,6.80
2023-01-22T12:49:16.764Z,6.10
2023-01-22T12:51:49.231Z,6.68
2023-01-22T12:54:21.730Z,7.00
2023-01-22T12:56:50.801Z,7.10
2023-01-22T12:59:51.620Z,6.95
2023-01-22T13:02:31.092Z,7.32
2023-01-22T13:05:10.831Z,7.13
2023-01-22T13:07:40.928Z,6.57
2023-01-22T13:10:24.519Z,7.45
2023-01-22T13:13:16.412Z,8.05
2023-01-22T13:15:43.995Z,8.55
2023-01-22T13:18:23.919Z,8.10
2023-01-22T13:20:57.047Z,6.55
2023-01-22T13:23:24.406Z,7.40
2023-01-22T13:25:55.610Z,7.55
2023-01-22T13:28:24.096Z,6.93
2023-01-22T13:30:59.091Z,7.32
2023-01-22T13:33:29.229Z,13.32
2023-01-22T13:35:56.758Z,11.23
2023-01-22T13:38:28.693Z,8.82
2023-01-22T13:41:21.972Z,8.88
2023-01-22T13:43:49.252Z,8.25
2023-01-22T13:46:16.500Z,9.20
2023-01-22T13:48:43.758Z,7.78
2023-01-22T13:51:19.409Z,8.00
2023-01-22T13:53:54.515Z,7.07
2023-01-22T13:56:23.440Z,6.47
2023-01-22T13:58:50.854Z,5.97
2023-01-22T14:01:30.101Z,6.80
2023-01-22T14:04:02.209Z,6.53
2023-01-22T14:06:29.719Z,5.95
2023-01-22T14:08:59.882Z,6.43
2023-01-22T14:14:03.962Z,6.57
2023-01-22T14:16:40.423Z,6.25
2023-01-22T14:19:07.301Z,5.82
2023-01-22T14:21:34.299Z,5.80
2023-01-22T14:24:01.140Z,6.05
2023-01-22T14:26:28.047Z,5.72
2023-01-22T14:28:54.797Z,6.80
2023-01-22T14:31:21.764Z,6.35
2023-01-22T14:33:48.615Z,6.45
2023-01-22T14:36:15.467Z,9.02
2023-01-22T14:38:42.280Z,16.13
2023-01-22T14:41:09.056Z,9.00
2023-01-22T14:43:38.975Z,7.10
2023-01-22T14:46:09.124Z,6.57
2023-01-22T14:51:08.928Z,6.03
2023-01-22T14:53:36.018Z,6.55
2023-01-22T14:56:03.002Z,6.35
2023-01-22T14:58:29.742Z,6.78
2023-01-22T15:00:56.555Z,6.40
2023-01-22T15:03:23.458Z,6.47
2023-01-22T15:05:53.332Z,6.00
2023-01-22T15:08:20.204Z,7.05
2023-01-22T15:10:47.015Z,6.15
2023-01-22T15:13:13.824Z,6.07
2023-01-22T15:15:40.648Z,6.47
2023-01-22T15:18:07.550Z,5.90
2023-01-22T15:20:34.404Z,7.05
2023-01-22T15:23:01.246Z,7.65
2023-01-22T15:25:32.253Z,7.50
2023-01-22T15:28:03.076Z,7.30
2023-01-22T15:30:30.422Z,7.00
2023-01-22T15:32:57.337Z,5.60
2023-01-22T15:35:24.170Z,5.70
2023-01-22T15:37:50.942Z,5.70
2023-01-22T15:40:18.189Z,6.00
2023-01-22T15:42:45.259Z,6.03
2023-01-22T15:45:15.391Z,6.03
2023-01-22T15:50:09.667Z,5.72
2023-01-22T15:52:36.413Z,6.00
2023-01-22T15:55:03.271Z,5.65
2023-01-22T15:57:30.145Z,6.38
2023-01-22T16:00:00.026Z,5.90
2023-01-22T16:02:26.930Z,5.97
2023-01-22T16:04:56.737Z,6.50
2023-01-22T16:07:23.707Z,5.10
2023-01-22T16:09:50.568Z,6.65
2023-01-22T16:12:18.346Z,6.95
2023-01-22T16:14:45.188Z,7.20
2023-01-22T16:17:12.370Z,6.47
2023-01-22T16:19:39.123Z,6.10
2023-01-22T16:22:05.985Z,6.03
2023-01-22T16:24:35.676Z,7.13
2023-01-22T16:27:02.463Z,8.10
2023-01-22T16:29:29.462Z,8.32
2023-01-22T16:31:56.701Z,9.25
2023-01-22T16:34:23.645Z,8.25
2023-01-22T16:36:50.509Z,8.32
2023-01-22T16:39:22.424Z,8.85
2023-01-22T16:41:50.829Z,8.55
2023-01-22T16:44:20.077Z,8.98
2023-01-22T16:46:49.483Z,10.37
2023-01-22T16:49:17.873Z,10.25
2023-01-22T16:51:47.277Z,10.50
2023-01-22T16:54:19.547Z,9.75
2023-01-22T16:56:46.796Z,9.90
2023-01-22T16:59:13.650Z,8.93
2023-01-22T17:01:41.510Z,7.70
2023-01-22T17:04:08.685Z,8.10
2023-01-22T17:06:47.844Z,7.97
2023-01-22T17:09:18.971Z,7.80
2023-01-22T17:11:48.793Z,7.95
2023-01-22T17:14:21.759Z,8.75
2023-01-22T17:16:48.940Z,9.00
2023-01-22T17:19:16.972Z,8.00
2023-01-22T17:21:44.109Z,8.93
2023-01-22T17:24:12.176Z,8.77
2023-01-22T17:26:40.092Z,9.20
2023-01-22T17:29:09.390Z,9.30
2023-01-22T17:31:37.511Z,8.90
2023-01-22T17:34:04.765Z,8.32
2023-01-22T17:36:32.251Z,9.90
2023-01-22T17:38:59.982Z,13.40
2023-01-22T17:41:27.099Z,9.93
2023-01-22T17:43:56.154Z,10.38
2023-01-22T17:46:29.159Z,9.15
2023-01-22T17:48:56.771Z,9.32
2023-01-22T17:51:26.758Z,8.82
2023-01-22T17:53:55.036Z,9.85
2023-01-22T17:56:43.165Z,9.43
2023-01-22T17:59:11.412Z,9.95
2023-01-22T18:01:40.557Z,9.90
2023-01-22T18:04:10.735Z,9.53
2023-01-22T18:06:43.891Z,9.13
2023-01-22T18:09:12.828Z,9.23
2023-01-22T18:11:43.194Z,10.05
2023-01-22T18:16:40.802Z,9.13
2023-01-22T18:19:08.579Z,9.13
2023-01-22T18:21:37.143Z,10.07
2023-01-22T18:24:05.768Z,9.25
2023-01-22T18:26:33.940Z,9.68
2023-01-22T18:29:02.680Z,8.47
2023-01-22T18:31:30.551Z,9.45
2023-01-22T18:34:02.866Z,8.60
2023-01-22T18:36:32.214Z,9.38
2023-01-22T18:39:01.693Z,9.27
2023-01-22T18:41:31.176Z,9.65
2023-01-22T18:44:01.312Z,8.85
2023-01-22T18:48:59.505Z,8.70
2023-01-22T18:51:28.149Z,9.15
2023-01-22T18:53:56.074Z,8.40
2023-01-22T18:56:25.485Z,9.45
2023-01-22T18:58:56.585Z,9.48
2023-01-22T19:01:29.460Z,9.57
2023-01-22T19:04:02.191Z,9.70
2023-01-22T19:06:36.826Z,7.80
2023-01-22T19:09:09.962Z,8.68
2023-01-22T19:11:38.907Z,9.00
2023-01-22T19:14:09.161Z,9.60
2023-01-22T19:16:37.396Z,9.38
2023-01-22T19:19:11.132Z,9.77
2023-01-22T19:21:40.331Z,15.85
2023-01-22T19:24:11.578Z,15.85
2023-01-22T19:26:38.972Z,14.60
2023-01-22T19:29:14.146Z,12.43
2023-01-22T19:31:45.952Z,10.93
2023-01-22T19:34:16.203Z,9.50
2023-01-22T19:39:12.430Z,9.23
2023-01-22T19:41:43.420Z,9.15
2023-01-22T19:44:11.323Z,9.82
2023-01-22T19:46:38.948Z,9.35
2023-01-22T19:49:06.581Z,10.07
2023-01-22T19:51:33.978Z,11.73
2023-01-22T19:54:03.121Z,10.38
2023-01-22T19:56:32.552Z,10.00
2023-01-22T19:59:11.219Z,10.07
2023-01-22T20:01:39.848Z,8.45
2023-01-22T20:04:21.752Z,9.40
2023-01-22T20:06:52.920Z,9.98
2023-01-22T20:09:23.269Z,10.13
2023-01-22T20:11:57.383Z,10.60
2023-01-22T20:14:32.472Z,10.02
2023-01-22T20:17:02.422Z,10.15
2023-01-22T20:21:56.909Z,9.10
2023-01-22T20:24:24.095Z,10.25
2023-01-22T20:26:55.315Z,9.98
2023-01-22T20:29:22.570Z,9.60
2023-01-22T20:31:53.726Z,10.20
2023-01-22T20:34:21.495Z,9.95
2023-01-22T20:36:49.001Z,10.48
2023-01-22T20:39:16.527Z,11.20
2023-01-22T20:41:45.822Z,10.95
2023-01-22T20:44:14.053Z,10.60
2023-01-22T20:46:48.786Z,11.00
2023-01-22T20:49:16.127Z,11.70
2023-01-22T20:51:46.211Z,9.90
2023-01-22T20:54:14.026Z,10.90
2023-01-22T20:56:41.483Z,10.95
2023-01-22T20:59:12.020Z,10.95
2023-01-22T21:01:39.006Z,10.48
2023-01-22T21:04:06.510Z,11.43
2023-01-22T21:06:35.380Z,13.55
2023-01-22T21:09:03.788Z,12.20
2023-01-22T21:11:32.072Z,12.60
2023-01-22T21:14:00.751Z,12.95
2023-01-22T21:16:34.113Z,12.63
2023-01-22T21:19:03.445Z,11.43
2023-01-22T21:21:31.669Z,12.07
2023-01-22T21:23:59.936Z,11.23
2023-01-22T21:26:31.527Z,11.27
2023-01-22T21:29:09.417Z,12.10
2023-01-22T21:31:37.309Z,11.75
2023-01-22T21:34:06.094Z,11.18
2023-01-22T21:36:42.657Z,10.55
2023-01-22T21:39:14.422Z,10.50
2023-01-22T21:41:42.723Z,10.40
2023-01-22T21:44:30.741Z,9.80
2023-01-22T21:46:57.806Z,10.52
2023-01-22T21:49:24.729Z,10.43
2023-01-22T21:52:02.533Z,10.45
2023-01-22T21:54:36.239Z,10.75
2023-01-22T21:57:04.404Z,9.68
2023-01-22T21:59:31.324Z,11.70
2023-01-22T22:01:58.380Z,13.88
2023-01-22T22:04:27.187Z,17.55
2023-01-22T22:06:54.696Z,15.35
2023-01-22T22:09:24.725Z,12.25
2023-01-22T22:11:54.940Z,11.50
2023-01-22T22:14:22.068Z,11.35
2023-01-22T22:16:49.469Z,11.27
2023-01-22T22:19:20.575Z,11.15
2023-01-22T22:21:47.966Z,11.35
2023-01-22T22:24:15.893Z,11.38
2023-01-22T22:26:42.877Z,11.15
2023-01-22T22:29:10.246Z,11.02
